Pittsburg, California
Current Conditions -  °F | °C
As of 9:53 PM on Monday 20 Oct 2014 (Local Time) from KCCR Reporting Station
Clear Clear  
Wind Chill: 60°   Ceiling: Unl
Heat Index: 60°   Visibility: 10mi
Dew Point: 51°   Wind: 5mph
Humidity: 72%   Direction: 220°SW
Pressure: 30.02"   Gusts: NA
Location:  38.02°N, 121.88°W
Report Text: KCCR 210453Z 22004KT 10SM CLR 16/11 A3002 RMK AO2 SLP153 T01560106
Loading
Personal Weather Stations






























Interactive Weather Map New forecast layout! Learn more

10-Day Weather Forecast

Advertisements
Track Severe Weather on mobile